createdAt,value
2022-09-21T00:00:17.159Z,99.7
2022-09-21T00:01:16.741Z,99.7
2022-09-21T00:02:17.228Z,99.7
2022-09-21T00:03:16.722Z,99.6
2022-09-21T00:04:17.167Z,99.7
2022-09-21T00:05:16.634Z,99.6
2022-09-21T00:06:17.075Z,99.6
2022-09-21T00:07:16.496Z,99.6
2022-09-21T00:08:16.931Z,99.7
2022-09-21T00:09:17.765Z,99.7
2022-09-21T00:10:17.192Z,99.7
2022-09-21T00:11:16.659Z,99.7
2022-09-21T00:12:17.369Z,99.7
2022-09-21T00:13:16.805Z,99.7
2022-09-21T00:14:17.256Z,99.8
2022-09-21T00:15:16.749Z,99.8
2022-09-21T00:16:17.495Z,99.8
2022-09-21T00:17:17.029Z,99.8
2022-09-21T00:18:16.490Z,99.8
2022-09-21T00:19:16.994Z,99.9
2022-09-21T00:20:16.468Z,99.9
2022-09-21T00:21:16.932Z,99.9
2022-09-21T00:22:16.774Z,99.9
2022-09-21T00:23:17.227Z,99.9
2022-09-21T00:24:16.656Z,100.0
2022-09-21T00:25:17.076Z,100.0
2022-09-21T00:26:16.508Z,100.0
2022-09-21T00:27:16.945Z,100.0
2022-09-21T00:28:17.382Z,100.0
2022-09-21T00:29:16.850Z,100.0
2022-09-21T00:30:17.349Z,100.0
2022-09-21T00:31:16.883Z,100.0
2022-09-21T00:32:16.845Z,100.0
2022-09-21T00:33:17.339Z,100.0
2022-09-21T00:34:16.832Z,100.0
2022-09-21T00:35:17.294Z,100.0
2022-09-21T00:36:16.745Z,100.0
2022-09-21T00:37:17.163Z,100.0
2022-09-21T00:38:16.587Z,100.0
2022-09-21T00:39:17.016Z,100.0
2022-09-21T00:40:16.541Z,100.0
2022-09-21T00:41:17.039Z,100.0
2022-09-21T00:42:16.407Z,100.0
2022-09-21T00:43:16.844Z,100.0
2022-09-21T00:44:17.341Z,100.0
2022-09-21T00:45:16.824Z,100.0
2022-09-21T00:46:17.294Z,100.0
2022-09-21T00:47:16.770Z,100.0
2022-09-21T00:48:17.229Z,100.0
2022-09-21T00:49:16.725Z,100.0
2022-09-21T00:50:17.208Z,100.0
2022-09-21T00:51:16.633Z,100.0
2022-09-21T00:52:17.269Z,100.0
2022-09-21T00:53:16.687Z,100.0
2022-09-21T00:54:17.104Z,100.0
2022-09-21T00:55:16.561Z,100.0
2022-09-21T00:56:16.976Z,100.0
2022-09-21T00:57:17.404Z,100.0
2022-09-21T00:58:16.862Z,100.0
2022-09-21T00:59:22.009Z,100.0
2022-09-21T01:00:16.849Z,100.0
2022-09-21T01:01:17.415Z,100.0
2022-09-21T01:02:17.016Z,100.0
2022-09-21T01:03:16.501Z,100.0
2022-09-21T01:04:16.960Z,100.0
2022-09-21T01:05:17.414Z,100.0
2022-09-21T01:06:16.839Z,100.0
2022-09-21T01:07:17.280Z,100.0
2022-09-21T01:08:16.696Z,100.0
2022-09-21T01:09:17.120Z,100.0
2022-09-21T01:10:16.655Z,100.0
2022-09-21T01:11:17.067Z,100.0
2022-09-21T01:12:17.361Z,100.0
2022-09-21T01:13:16.820Z,100.0
2022-09-21T01:14:17.300Z,100.0
2022-09-21T01:15:16.782Z,100.0
2022-09-21T01:16:17.325Z,100.0
2022-09-21T01:17:16.790Z,100.0
2022-09-21T01:18:17.239Z,100.0
2022-09-21T01:19:16.700Z,100.0
2022-09-21T01:20:17.157Z,100.0
2022-09-21T01:21:16.588Z,100.0
2022-09-21T01:22:17.371Z,100.0
2022-09-21T01:23:16.795Z,100.0
2022-09-21T01:24:17.214Z,100.0
2022-09-21T01:25:16.648Z,100.0
2022-09-21T01:26:17.101Z,100.0
2022-09-21T01:27:16.521Z,100.0
2022-09-21T01:28:16.999Z,100.0
2022-09-21T01:29:16.463Z,100.0
2022-09-21T01:30:16.919Z,100.0
2022-09-21T01:31:17.496Z,100.0
2022-09-21T01:32:16.889Z,100.0
2022-09-21T01:33:17.352Z,100.0
2022-09-21T01:34:16.801Z,100.0
2022-09-21T01:35:17.224Z,100.0
2022-09-21T01:36:16.676Z,100.0
2022-09-21T01:37:17.097Z,100.0
2022-09-21T01:38:16.526Z,100.0
2022-09-21T01:39:16.965Z,100.0
2022-09-21T01:40:17.465Z,100.0
2022-09-21T01:41:16.912Z,100.0
2022-09-21T01:42:16.595Z,100.0
2022-09-21T01:43:17.061Z,100.0
2022-09-21T01:44:16.502Z,100.0
2022-09-21T01:45:16.973Z,100.0
2022-09-21T01:46:16.445Z,100.0
2022-09-21T01:47:16.880Z,100.0
2022-09-21T01:48:17.358Z,100.0
2022-09-21T01:49:16.791Z,100.0
2022-09-21T01:50:17.232Z,100.0
2022-09-21T01:51:16.667Z,100.0
2022-09-21T01:52:17.065Z,100.0
2022-09-21T01:53:16.490Z,100.0
2022-09-21T01:54:16.956Z,100.0
2022-09-21T01:55:17.373Z,100.0
2022-09-21T01:56:16.799Z,100.0
2022-09-21T01:57:17.243Z,100.0
2022-09-21T01:58:16.723Z,100.0
2022-09-21T01:59:17.195Z,100.0
2022-09-21T02:00:16.660Z,100.0
2022-09-21T02:01:17.175Z,100.0
2022-09-21T02:02:16.858Z,100.0
2022-09-21T02:03:17.338Z,100.0
2022-09-21T02:04:16.758Z,100.0
2022-09-21T02:05:17.185Z,100.0
2022-09-21T02:06:16.630Z,100.0
2022-09-21T02:07:17.060Z,100.0
2022-09-21T02:08:16.493Z,100.0
2022-09-21T02:09:16.927Z,100.0
2022-09-21T02:10:17.407Z,100.0
2022-09-21T02:11:16.844Z,100.0
2022-09-21T02:12:19.557Z,100.0
2022-09-21T02:13:17.051Z,100.0
2022-09-21T02:14:16.503Z,100.0
2022-09-21T02:15:16.977Z,100.0
2022-09-21T02:16:16.514Z,100.0
2022-09-21T02:17:16.961Z,100.0
2022-09-21T02:18:17.410Z,100.0
2022-09-21T02:19:16.829Z,100.0
2022-09-21T02:20:17.292Z,100.0
2022-09-21T02:21:16.706Z,100.0
2022-09-21T02:22:17.006Z,100.0
2022-09-21T02:23:16.442Z,100.0
2022-09-21T02:24:16.871Z,100.0
2022-09-21T02:25:17.302Z,100.0
2022-09-21T02:26:16.752Z,100.0
2022-09-21T02:27:17.215Z,100.0
2022-09-21T02:28:16.713Z,100.0
2022-09-21T02:29:17.189Z,100.0
2022-09-21T02:30:16.667Z,100.0
2022-09-21T02:31:18.063Z,100.0
2022-09-21T02:32:16.892Z,100.0
2022-09-21T02:33:17.325Z,100.0
2022-09-21T02:34:16.760Z,100.0
2022-09-21T02:35:17.196Z,100.0
2022-09-21T02:36:16.633Z,100.0
2022-09-21T02:37:17.100Z,100.0
2022-09-21T02:38:16.555Z,100.0
2022-09-21T02:39:16.970Z,100.0
2022-09-21T02:40:17.491Z,100.0
2022-09-21T02:41:16.926Z,100.0
2022-09-21T02:42:16.873Z,100.0
2022-09-21T02:43:17.345Z,100.0
2022-09-21T02:44:16.810Z,100.0
2022-09-21T02:45:17.272Z,100.0
2022-09-21T02:46:16.887Z,100.0
2022-09-21T02:47:17.413Z,100.0
2022-09-21T02:48:16.896Z,100.0
2022-09-21T02:49:17.345Z,100.0
2022-09-21T02:50:16.785Z,100.0
2022-09-21T02:51:17.202Z,100.0
2022-09-21T02:52:16.740Z,100.0
2022-09-21T02:53:17.202Z,100.0
2022-09-21T02:54:16.613Z,100.0
2022-09-21T02:55:17.071Z,100.0
2022-09-21T02:56:16.491Z,100.0
2022-09-21T02:57:16.938Z,100.0
2022-09-21T02:58:17.376Z,100.0
2022-09-21T02:59:16.860Z,100.0
2022-09-21T03:00:17.343Z,100.0
2022-09-21T03:01:16.797Z,100.0
2022-09-21T03:02:16.722Z,100.0
2022-09-21T03:03:17.191Z,100.0
2022-09-21T03:04:16.680Z,100.0
2022-09-21T03:05:17.134Z,100.0
2022-09-21T03:06:16.597Z,100.0
2022-09-21T03:07:17.020Z,100.0
2022-09-21T03:08:16.432Z,100.0
2022-09-21T03:09:16.877Z,100.0
2022-09-21T03:10:17.353Z,100.0
2022-09-21T03:11:16.781Z,100.0
2022-09-21T03:12:17.330Z,100.0
2022-09-21T03:13:16.767Z,100.0
2022-09-21T03:14:17.214Z,100.0
2022-09-21T03:15:16.659Z,100.0
2022-09-21T03:16:17.140Z,100.0
2022-09-21T03:17:16.623Z,100.0
2022-09-21T03:18:17.098Z,100.0
2022-09-21T03:19:16.541Z,100.0
2022-09-21T03:20:16.968Z,100.0
2022-09-21T03:21:17.383Z,100.0
2022-09-21T03:22:17.099Z,100.0
2022-09-21T03:23:16.520Z,100.0
2022-09-21T03:24:16.968Z,100.0
2022-09-21T03:25:17.436Z,100.0
2022-09-21T03:26:16.860Z,100.0
2022-09-21T03:27:17.314Z,100.0
2022-09-21T03:28:16.752Z,100.0
2022-09-21T03:29:17.202Z,100.0
2022-09-21T03:30:16.693Z,100.0
2022-09-21T03:31:17.474Z,100.0
2022-09-21T03:32:16.889Z,100.0
2022-09-21T03:33:17.354Z,100.0
2022-09-21T03:34:16.802Z,100.0
2022-09-21T03:35:17.283Z,100.0
2022-09-21T03:36:16.725Z,100.0
2022-09-21T03:37:17.195Z,100.0
2022-09-21T03:38:16.605Z,100.0
2022-09-21T03:39:17.073Z,100.0
2022-09-21T03:40:16.631Z,100.0
2022-09-21T03:41:17.103Z,100.0
2022-09-21T03:42:16.878Z,100.0
2022-09-21T03:43:17.318Z,100.0
2022-09-21T03:44:16.761Z,100.0
2022-09-21T03:45:17.229Z,100.0
2022-09-21T03:46:16.811Z,100.0
2022-09-21T03:47:17.256Z,100.0
2022-09-21T03:48:16.710Z,100.0
2022-09-21T03:49:17.154Z,100.0
2022-09-21T03:50:16.605Z,100.0
2022-09-21T03:51:17.034Z,100.0
2022-09-21T03:52:16.676Z,100.0
2022-09-21T03:53:17.116Z,100.0
2022-09-21T03:54:16.547Z,100.0
2022-09-21T03:55:16.984Z,100.0
2022-09-21T03:56:16.531Z,100.0
2022-09-21T03:57:16.982Z,100.0
2022-09-21T03:58:16.448Z,100.0
2022-09-21T03:59:16.900Z,100.0
2022-09-21T04:00:17.369Z,100.0
2022-09-21T04:01:16.912Z,100.0
2022-09-21T04:02:17.045Z,100.0
2022-09-21T04:03:16.557Z,100.0
2022-09-21T04:04:17.013Z,100.0
2022-09-21T04:05:16.462Z,100.0
2022-09-21T04:06:16.880Z,100.0
2022-09-21T04:07:17.319Z,100.0
2022-09-21T04:08:16.773Z,100.0
2022-09-21T04:09:17.187Z,100.0
2022-09-21T04:10:16.627Z,100.0
2022-09-21T04:11:17.073Z,100.0
2022-09-21T04:12:16.578Z,100.0
2022-09-21T04:13:17.071Z,100.0
2022-09-21T04:14:16.552Z,100.0
2022-09-21T04:15:17.014Z,100.0
2022-09-21T04:16:16.494Z,100.0
2022-09-21T04:17:16.947Z,100.0
2022-09-21T04:18:17.386Z,100.0
2022-09-21T04:19:16.824Z,100.0
2022-09-21T04:20:17.277Z,100.0
2022-09-21T04:21:16.738Z,100.0
2022-09-21T04:22:16.838Z,100.0
2022-09-21T04:23:17.287Z,100.0
2022-09-21T04:24:16.701Z,100.0
2022-09-21T04:25:17.178Z,100.0
2022-09-21T04:26:16.642Z,100.0
2022-09-21T04:27:17.126Z,100.0
2022-09-21T04:28:16.576Z,100.0
2022-09-21T04:29:17.041Z,100.0
2022-09-21T04:30:16.497Z,100.0
2022-09-21T04:31:17.040Z,100.0
2022-09-21T04:32:16.453Z,100.0
2022-09-21T04:33:16.879Z,100.0
2022-09-21T04:34:17.295Z,100.0
2022-09-21T04:35:16.712Z,100.0
2022-09-21T04:36:17.145Z,100.0
2022-09-21T04:37:16.588Z,100.0
2022-09-21T04:38:17.020Z,100.0
2022-09-21T04:39:16.465Z,100.0
2022-09-21T04:40:17.020Z,100.0
2022-09-21T04:41:16.517Z,100.0
2022-09-21T04:42:16.552Z,100.0
2022-09-21T04:43:22.743Z,100.0
2022-09-21T04:44:17.280Z,100.0
2022-09-21T04:45:16.782Z,100.0
2022-09-21T04:46:17.343Z,100.0
2022-09-21T04:47:16.819Z,100.0
2022-09-21T04:48:17.240Z,100.0
2022-09-21T04:49:16.710Z,100.0
2022-09-21T04:50:17.139Z,100.0
2022-09-21T04:51:16.555Z,100.0
2022-09-21T04:52:19.387Z,100.0
2022-09-21T04:53:16.831Z,100.0
2022-09-21T04:54:17.283Z,100.0
2022-09-21T04:55:16.726Z,100.0
2022-09-21T04:56:17.185Z,100.0
2022-09-21T04:57:16.657Z,100.0
2022-09-21T04:58:24.436Z,100.0
2022-09-21T04:59:17.088Z,100.0
2022-09-21T05:00:16.516Z,100.0
2022-09-21T05:01:17.049Z,100.0
2022-09-21T05:02:16.503Z,100.0
2022-09-21T05:03:17.023Z,100.0
2022-09-21T05:04:16.454Z,100.0
2022-09-21T05:05:16.867Z,100.0
2022-09-21T05:06:17.320Z,100.0
2022-09-21T05:07:16.764Z,100.0
2022-09-21T05:08:17.212Z,100.0
2022-09-21T05:09:16.678Z,100.0
2022-09-21T05:10:17.146Z,100.0
2022-09-21T05:11:16.611Z,100.0
2022-09-21T05:12:16.441Z,100.0
2022-09-21T05:13:19.976Z,100.0
2022-09-21T05:14:16.440Z,100.0
2022-09-21T05:15:16.884Z,100.0
2022-09-21T05:16:17.322Z,100.0
2022-09-21T05:17:16.788Z,100.0
2022-09-21T05:18:17.207Z,100.0
2022-09-21T05:19:16.631Z,100.0
2022-09-21T05:20:17.061Z,100.0
2022-09-21T05:21:16.486Z,100.0
2022-09-21T05:22:17.182Z,100.0
2022-09-21T05:23:17.093Z,100.0
2022-09-21T05:24:16.585Z,100.0
2022-09-21T05:25:17.051Z,100.0
2022-09-21T05:26:16.524Z,100.0
2022-09-21T05:27:17.029Z,100.0
2022-09-21T05:28:16.492Z,100.0
2022-09-21T05:29:16.941Z,100.0
2022-09-21T05:30:17.386Z,100.0
2022-09-21T05:31:18.666Z,100.0
2022-09-21T05:32:16.727Z,100.0
2022-09-21T05:33:17.200Z,100.0
2022-09-21T05:34:16.638Z,100.0
2022-09-21T05:35:17.058Z,100.0
2022-09-21T05:36:16.489Z,100.0
2022-09-21T05:37:16.927Z,100.0
2022-09-21T05:38:17.372Z,100.0
2022-09-21T05:39:16.879Z,100.0
2022-09-21T05:40:17.474Z,100.0
2022-09-21T05:41:16.976Z,100.0
2022-09-21T05:42:17.358Z,100.0
2022-09-21T05:43:16.831Z,100.0
2022-09-21T05:44:17.256Z,100.0
2022-09-21T05:45:16.677Z,100.0
2022-09-21T05:46:17.195Z,100.0
2022-09-21T05:47:16.647Z,100.0
2022-09-21T05:48:17.094Z,100.0
2022-09-21T05:49:16.516Z,100.0
2022-09-21T05:50:16.939Z,100.0
2022-09-21T05:51:17.432Z,100.0
2022-09-21T05:52:17.124Z,100.0
2022-09-21T05:53:16.645Z,100.0
2022-09-21T05:54:17.112Z,100.0
2022-09-21T05:55:16.589Z,100.0
2022-09-21T05:56:17.199Z,100.0
2022-09-21T05:57:16.649Z,100.0
2022-09-21T05:58:17.071Z,100.0
2022-09-21T05:59:16.525Z,100.0
2022-09-21T06:00:16.948Z,100.0
2022-09-21T06:01:17.481Z,100.0
2022-09-21T06:02:16.935Z,100.0
2022-09-21T06:03:18.062Z,100.0
2022-09-21T06:04:16.529Z,100.0
2022-09-21T06:05:16.979Z,100.0
2022-09-21T06:06:16.417Z,100.0
2022-09-21T06:07:16.882Z,100.0
2022-09-21T06:08:17.344Z,100.0
2022-09-21T06:09:16.808Z,100.0
2022-09-21T06:10:17.288Z,100.0
2022-09-21T06:11:16.745Z,100.0
2022-09-21T06:12:16.505Z,100.0
2022-09-21T06:13:16.945Z,100.0
2022-09-21T06:14:17.384Z,100.0
2022-09-21T06:15:16.866Z,100.0
2022-09-21T06:16:17.463Z,100.0
2022-09-21T06:17:16.921Z,100.0
2022-09-21T06:18:18.518Z,100.0
2022-09-21T06:19:16.987Z,100.0
2022-09-21T06:20:16.451Z,100.0
2022-09-21T06:21:16.921Z,100.0
2022-09-21T06:22:17.176Z,100.0
2022-09-21T06:23:16.635Z,100.0
2022-09-21T06:24:17.112Z,100.0
2022-09-21T06:25:16.556Z,100.0
2022-09-21T06:26:16.979Z,100.0
2022-09-21T06:27:16.439Z,100.0
2022-09-21T06:28:16.857Z,99.9
2022-09-21T06:29:17.271Z,99.8
2022-09-21T06:30:16.712Z,99.8
2022-09-21T06:31:17.154Z,99.8
2022-09-21T06:32:17.150Z,99.6
2022-09-21T06:33:16.618Z,99.7
2022-09-21T06:34:17.075Z,99.8
2022-09-21T06:35:16.528Z,99.8
2022-09-21T06:36:17.000Z,99.8
2022-09-21T06:37:16.450Z,99.7
2022-09-21T06:38:16.940Z,99.6
2022-09-21T06:39:17.414Z,99.5
2022-09-21T06:40:16.936Z,99.5
2022-09-21T06:41:21.510Z,99.5
2022-09-21T06:42:16.794Z,99.4
2022-09-21T06:43:17.234Z,99.3
2022-09-21T06:44:16.677Z,99.2
2022-09-21T06:45:17.148Z,99.3
2022-09-21T06:46:16.663Z,99.2
2022-09-21T06:47:17.189Z,99.2
2022-09-21T06:48:16.656Z,99.3
2022-09-21T06:49:17.096Z,99.4
2022-09-21T06:50:16.576Z,99.7
2022-09-21T06:51:17.023Z,99.7
2022-09-21T06:52:16.638Z,99.7
2022-09-21T06:53:17.111Z,99.5
2022-09-21T06:54:16.557Z,99.4
2022-09-21T06:55:17.001Z,99.5
2022-09-21T06:56:16.448Z,99.5
2022-09-21T06:57:16.869Z,99.5
2022-09-21T06:58:17.304Z,99.5
2022-09-21T06:59:16.739Z,99.5
2022-09-21T07:00:17.172Z,99.5
2022-09-21T07:01:16.837Z,99.2
2022-09-21T07:02:17.311Z,99.1
2022-09-21T07:03:16.814Z,99.0
2022-09-21T07:04:21.961Z,99.0
2022-09-21T07:05:17.431Z,98.9
2022-09-21T07:06:16.906Z,98.8
2022-09-21T07:07:17.350Z,98.8
2022-09-21T07:10:21.067Z,98.6
2022-09-21T07:11:16.580Z,98.7
2022-09-21T07:12:16.971Z,98.7
2022-09-21T07:13:17.391Z,98.6
2022-09-21T07:14:16.841Z,98.5
2022-09-21T07:15:17.312Z,98.6
2022-09-21T07:16:16.874Z,98.5
2022-09-21T07:17:17.382Z,98.5
2022-09-21T07:18:16.858Z,98.5
2022-09-21T07:19:17.309Z,98.5
2022-09-21T07:20:16.774Z,98.4
2022-09-21T07:21:17.302Z,98.3
2022-09-21T07:22:16.901Z,98.3
2022-09-21T07:23:17.385Z,98.2
2022-09-21T07:24:16.812Z,98.1
2022-09-21T07:25:17.234Z,98.2
2022-09-21T07:26:16.661Z,98.2
2022-09-21T07:27:17.103Z,98.0
2022-09-21T07:28:16.572Z,98.2
2022-09-21T07:29:17.005Z,98.2
2022-09-21T07:30:16.435Z,98.3
2022-09-21T07:31:17.008Z,98.2
2022-09-21T07:32:16.702Z,98.2
2022-09-21T07:33:17.179Z,98.2
2022-09-21T07:34:16.632Z,98.1
2022-09-21T07:35:17.071Z,98.0
2022-09-21T07:36:16.534Z,98.1
2022-09-21T07:37:16.991Z,98.1
2022-09-21T07:38:16.428Z,98.0
2022-09-21T07:39:16.872Z,98.0
2022-09-21T07:40:24.958Z,98.2
2022-09-21T07:41:16.650Z,98.2
2022-09-21T07:42:16.879Z,98.2
2022-09-21T07:43:17.309Z,98.0
2022-09-21T07:44:16.761Z,97.8
2022-09-21T07:45:17.320Z,97.8
2022-09-21T07:46:16.798Z,97.8
2022-09-21T07:47:17.268Z,97.7
2022-09-21T07:48:16.734Z,97.8
2022-09-21T07:49:17.238Z,97.8
2022-09-21T07:50:16.716Z,97.8
2022-09-21T07:51:17.181Z,97.7
2022-09-21T07:52:16.451Z,97.6
2022-09-21T07:53:16.871Z,97.5
2022-09-21T07:54:17.305Z,97.8
2022-09-21T07:55:16.741Z,97.8
2022-09-21T07:56:17.181Z,97.7
2022-09-21T07:57:16.709Z,97.6
2022-09-21T07:58:17.179Z,98.2
2022-09-21T07:59:16.689Z,98.2
2022-09-21T08:00:17.149Z,97.9
2022-09-21T08:01:16.760Z,97.5
2022-09-21T08:02:16.836Z,97.3
2022-09-21T08:03:17.366Z,97.3
2022-09-21T08:04:16.888Z,97.4
2022-09-21T08:05:17.390Z,97.3
2022-09-21T08:06:16.932Z,97.0
2022-09-21T08:07:17.366Z,97.1
2022-09-21T08:08:16.790Z,97.2
2022-09-21T08:09:17.214Z,97.2
2022-09-21T08:10:16.648Z,97.2
2022-09-21T08:11:17.077Z,97.2
2022-09-21T08:12:16.794Z,97.0
2022-09-21T08:13:17.208Z,97.2
2022-09-21T08:14:16.704Z,97.0
2022-09-21T08:15:44.348Z,96.9
2022-09-21T08:16:16.905Z,97.0
2022-09-21T08:17:17.410Z,96.9
2022-09-21T08:18:16.889Z,96.8
2022-09-21T08:19:17.350Z,96.8
2022-09-21T08:20:16.789Z,96.8
2022-09-21T08:21:17.237Z,96.8
2022-09-21T08:22:16.784Z,96.9
2022-09-21T08:23:17.238Z,97.0
2022-09-21T08:24:16.661Z,96.7
2022-09-21T08:25:17.259Z,96.7
2022-09-21T08:26:16.676Z,96.8
2022-09-21T08:27:17.102Z,96.7
2022-09-21T08:28:16.555Z,97.1
2022-09-21T08:29:17.013Z,96.5
2022-09-21T08:30:16.476Z,96.3
2022-09-21T08:31:17.008Z,96.4
2022-09-21T08:32:49.749Z,96.2
2022-09-21T08:33:16.780Z,96.0
2022-09-21T08:34:17.278Z,96.0
2022-09-21T08:35:16.787Z,96.0
2022-09-21T08:36:17.230Z,96.0
2022-09-21T08:37:16.661Z,95.8
2022-09-21T08:38:17.080Z,95.9
2022-09-21T08:39:16.497Z,96.0
2022-09-21T08:40:17.181Z,96.1
2022-09-21T08:41:16.612Z,96.0
2022-09-21T08:42:16.567Z,96.0
2022-09-21T08:43:16.996Z,95.8
2022-09-21T08:44:16.478Z,95.9
2022-09-21T08:45:16.937Z,95.8
2022-09-21T08:46:17.500Z,95.5
2022-09-21T08:47:16.971Z,95.2
2022-09-21T08:48:17.445Z,95.3
2022-09-21T08:49:16.901Z,95.3
2022-09-21T08:50:17.372Z,95.2
2022-09-21T08:51:16.890Z,95.3
2022-09-21T08:52:17.360Z,95.0
2022-09-21T08:53:16.854Z,95.1
2022-09-21T08:54:17.332Z,95.5
2022-09-21T08:55:18.019Z,95.5
2022-09-21T08:56:16.444Z,95.0
2022-09-21T08:57:16.886Z,95.0
2022-09-21T08:58:17.338Z,95.0
2022-09-21T08:59:16.790Z,94.8
2022-09-21T09:00:17.278Z,94.8
2022-09-21T09:01:16.805Z,94.8
2022-09-21T09:02:17.496Z,94.6
2022-09-21T09:03:16.991Z,94.8
2022-09-21T09:04:16.475Z,94.5
2022-09-21T09:05:16.933Z,94.5
2022-09-21T09:06:17.369Z,94.5
2022-09-21T09:07:16.821Z,94.5
2022-09-21T09:08:17.243Z,94.5
2022-09-21T09:09:16.676Z,94.5
2022-09-21T09:10:17.105Z,94.3
2022-09-21T09:11:16.527Z,94.2
2022-09-21T09:12:17.002Z,93.8
2022-09-21T09:13:16.462Z,94.2
2022-09-21T09:14:16.948Z,94.4
2022-09-21T09:15:17.444Z,93.7
2022-09-21T09:16:17.122Z,93.5
2022-09-21T09:17:16.635Z,93.1
2022-09-21T09:18:17.115Z,93.7
2022-09-21T09:19:16.590Z,93.3
2022-09-21T09:20:17.095Z,92.5
2022-09-21T09:21:30.059Z,91.9
2022-09-21T09:22:17.166Z,91.6
2022-09-21T09:23:16.632Z,90.9
2022-09-21T09:24:17.049Z,90.3
2022-09-21T09:25:16.471Z,90.3
2022-09-21T09:26:16.916Z,89.5
2022-09-21T09:27:17.361Z,89.2
2022-09-21T09:28:16.843Z,87.8
2022-09-21T09:29:17.339Z,87.8
2022-09-21T09:30:16.798Z,87.1
2022-09-21T09:31:17.363Z,86.4
2022-09-21T09:32:16.967Z,86.0
2022-09-21T09:33:17.434Z,86.2
2022-09-21T09:34:16.933Z,85.7
2022-09-21T09:35:17.377Z,85.8
2022-09-21T09:36:16.793Z,86.6
2022-09-21T09:37:17.237Z,86.0
2022-09-21T09:38:16.677Z,85.9
2022-09-21T09:39:17.117Z,85.6
2022-09-21T09:40:16.638Z,84.8
2022-09-21T09:41:17.105Z,84.4
2022-09-21T09:42:16.767Z,84.8
2022-09-21T09:43:17.234Z,84.4
2022-09-21T09:44:16.704Z,84.2
2022-09-21T09:45:17.177Z,84.1
2022-09-21T09:46:16.801Z,83.9
2022-09-21T09:47:17.295Z,84.2
2022-09-21T09:48:16.793Z,83.9
2022-09-21T09:49:17.233Z,82.6
2022-09-21T09:50:16.667Z,82.3
2022-09-21T09:51:17.097Z,82.5
2022-09-21T09:52:16.772Z,82.3
2022-09-21T09:53:17.190Z,81.1
2022-09-21T09:54:16.635Z,80.0
2022-09-21T09:55:17.091Z,79.5
2022-09-21T09:56:16.549Z,79.0
2022-09-21T09:57:17.014Z,78.6
2022-09-21T09:58:16.502Z,78.5
2022-09-21T09:59:16.996Z,77.9
2022-09-21T10:00:16.487Z,77.9
2022-09-21T10:01:17.130Z,78.0
2022-09-21T10:02:16.557Z,77.9
2022-09-21T10:03:16.994Z,77.1
2022-09-21T10:04:16.487Z,76.8
2022-09-21T10:05:16.934Z,76.5
2022-09-21T10:06:17.365Z,76.7
2022-09-21T10:07:16.788Z,76.0
2022-09-21T10:08:17.218Z,76.5
2022-09-21T10:09:16.638Z,76.2
2022-09-21T10:10:17.108Z,75.8
2022-09-21T10:11:16.578Z,75.7
2022-09-21T10:12:16.776Z,75.6
2022-09-21T10:13:17.271Z,76.5
2022-09-21T10:14:16.739Z,75.9
2022-09-21T10:15:17.212Z,76.0
2022-09-21T10:16:16.932Z,76.8
2022-09-21T10:17:16.420Z,77.3
2022-09-21T10:18:16.857Z,75.5
2022-09-21T10:19:17.288Z,74.8
2022-09-21T10:20:16.756Z,74.7
2022-09-21T10:21:17.173Z,75.0
2022-09-21T10:22:16.753Z,75.2
2022-09-21T10:23:17.174Z,75.9
2022-09-21T10:24:16.624Z,75.1
2022-09-21T10:25:17.083Z,74.2
2022-09-21T10:26:16.536Z,74.3
2022-09-21T10:27:17.007Z,75.2
2022-09-21T10:28:16.460Z,73.8
2022-09-21T10:29:16.933Z,73.5
2022-09-21T10:30:17.401Z,73.8
2022-09-21T10:31:16.923Z,73.0
2022-09-21T10:32:17.068Z,73.5
2022-09-21T10:33:16.479Z,74.2
2022-09-21T10:34:16.904Z,75.7
2022-09-21T10:35:17.334Z,73.5
2022-09-21T10:36:16.795Z,73.2
2022-09-21T10:37:17.231Z,73.8
2022-09-21T10:38:22.804Z,73.4
2022-09-21T10:39:17.403Z,73.8
2022-09-21T10:40:16.960Z,73.5
2022-09-21T10:41:16.450Z,73.6
2022-09-21T10:42:16.916Z,73.5
2022-09-21T10:43:17.390Z,74.0
2022-09-21T10:44:16.854Z,74.2
2022-09-21T10:45:17.310Z,73.8
2022-09-21T10:46:16.805Z,74.2
2022-09-21T10:47:17.340Z,74.5
2022-09-21T10:48:16.820Z,73.7
2022-09-21T10:49:17.256Z,73.0
2022-09-21T10:50:16.726Z,73.6
2022-09-21T10:51:17.145Z,72.9
2022-09-21T10:52:17.131Z,73.9
2022-09-21T10:53:16.593Z,74.2
2022-09-21T10:54:17.047Z,74.6
2022-09-21T10:55:16.569Z,73.1
2022-09-21T10:56:18.173Z,73.0
2022-09-21T10:57:16.641Z,73.9
2022-09-21T10:58:17.237Z,73.3
2022-09-21T10:59:16.696Z,73.3
2022-09-21T11:00:17.169Z,71.0
2022-09-21T11:01:16.674Z,70.9
2022-09-21T11:02:17.497Z,70.4
2022-09-21T11:03:16.936Z,70.5
2022-09-21T11:04:17.361Z,70.0
2022-09-21T11:05:16.803Z,71.1
2022-09-21T11:06:17.227Z,71.8
2022-09-21T11:07:16.657Z,72.0
2022-09-21T11:08:17.152Z,71.2
2022-09-21T11:09:16.606Z,70.8
2022-09-21T11:10:17.081Z,69.9
2022-09-21T11:11:16.560Z,69.8
2022-09-21T11:12:16.973Z,70.0
2022-09-21T11:13:16.427Z,70.8
2022-09-21T11:14:16.881Z,70.6
2022-09-21T11:15:17.349Z,69.6
2022-09-21T11:16:16.929Z,70.4
2022-09-21T11:17:16.410Z,69.0
2022-09-21T11:18:16.849Z,69.7
2022-09-21T11:19:17.294Z,69.2
2022-09-21T11:20:16.764Z,69.0
2022-09-21T11:21:17.226Z,69.0
2022-09-21T11:22:16.877Z,67.8
2022-09-21T11:23:17.333Z,69.7
2022-09-21T11:24:16.773Z,70.2
2022-09-21T11:25:17.221Z,68.7
2022-09-21T11:26:16.713Z,66.4
2022-09-21T11:27:17.221Z,67.6
2022-09-21T11:28:16.737Z,67.2
2022-09-21T11:29:17.353Z,67.7
2022-09-21T11:30:17.198Z,68.3
2022-09-21T11:31:16.694Z,66.9
2022-09-21T11:32:16.847Z,66.9
2022-09-21T11:33:17.282Z,66.9
2022-09-21T11:34:16.724Z,67.1
2022-09-21T11:35:17.159Z,67.0
2022-09-21T11:36:16.625Z,67.0
2022-09-21T11:37:17.087Z,68.0
2022-09-21T11:38:16.544Z,66.3
2022-09-21T11:39:16.998Z,66.8
2022-09-21T11:40:16.578Z,67.0
2022-09-21T11:41:17.064Z,66.4
2022-09-21T11:42:17.406Z,69.7
2022-09-21T11:43:17.436Z,69.8
2022-09-21T11:44:19.360Z,69.0
2022-09-21T11:45:16.895Z,70.0
2022-09-21T11:46:17.516Z,70.9
2022-09-21T11:47:16.962Z,70.1
2022-09-21T11:48:17.382Z,69.1
2022-09-21T11:49:16.824Z,68.5
2022-09-21T11:50:30.824Z,69.2
2022-09-21T11:51:16.627Z,69.1
2022-09-21T11:52:16.814Z,68.8
2022-09-21T11:53:17.283Z,68.3
2022-09-21T11:54:16.740Z,68.5
2022-09-21T11:55:17.230Z,69.0
2022-09-21T11:56:16.684Z,69.3
2022-09-21T11:57:17.130Z,70.2
2022-09-21T11:58:16.621Z,69.5
2022-09-21T11:59:17.045Z,70.1
2022-09-21T12:00:16.681Z,69.9
2022-09-21T12:01:17.147Z,69.5
2022-09-21T12:02:16.698Z,69.5
2022-09-21T12:03:17.215Z,68.7
2022-09-21T12:04:16.681Z,69.1
2022-09-21T12:05:17.122Z,69.0
2022-09-21T12:06:16.590Z,69.2
2022-09-21T12:07:17.076Z,70.2
2022-09-21T12:08:16.555Z,70.5
2022-09-21T12:09:17.004Z,71.9
2022-09-21T12:10:16.472Z,71.2
2022-09-21T12:11:17.036Z,70.9
2022-09-21T12:12:16.699Z,70.8
2022-09-21T12:13:17.132Z,70.7
2022-09-21T12:14:16.575Z,71.6
2022-09-21T12:15:17.151Z,71.2
2022-09-21T12:16:16.739Z,71.7
2022-09-21T12:17:17.192Z,71.5
2022-09-21T12:18:16.619Z,71.6
2022-09-21T12:19:17.041Z,71.5
2022-09-21T12:20:16.499Z,71.0
2022-09-21T12:21:16.936Z,70.9
2022-09-21T12:22:16.554Z,70.5
2022-09-21T12:23:17.005Z,70.8
2022-09-21T12:24:16.462Z,71.0
2022-09-21T12:25:16.938Z,71.1
2022-09-21T12:26:17.407Z,71.0
2022-09-21T12:27:16.898Z,70.8
2022-09-21T12:28:17.349Z,70.3
2022-09-21T12:29:16.813Z,70.1
2022-09-21T12:30:17.534Z,70.1
2022-09-21T12:31:17.143Z,70.8
2022-09-21T12:32:17.170Z,70.0
2022-09-21T12:33:16.606Z,69.6
2022-09-21T12:34:17.042Z,70.0
2022-09-21T12:35:16.507Z,70.0
2022-09-21T12:36:16.957Z,70.3
2022-09-21T12:37:17.428Z,69.8
2022-09-21T12:38:16.907Z,70.2
2022-09-21T12:39:17.377Z,71.7
2022-09-21T12:40:17.130Z,70.5
2022-09-21T12:41:16.600Z,69.8
2022-09-21T12:42:16.874Z,70.0
2022-09-21T12:43:17.316Z,70.0
2022-09-21T12:44:16.822Z,69.0
2022-09-21T12:45:17.294Z,68.9
2022-09-21T12:46:16.917Z,68.7
2022-09-21T12:47:17.382Z,69.2
2022-09-21T12:48:16.841Z,68.2
2022-09-21T12:49:17.259Z,68.6
2022-09-21T12:50:16.794Z,68.6
2022-09-21T12:51:17.261Z,68.5
2022-09-21T12:52:16.576Z,69.2
2022-09-21T12:53:17.047Z,69.1
2022-09-21T12:54:16.520Z,69.2
2022-09-21T12:55:17.687Z,69.6
2022-09-21T12:56:17.156Z,70.2
2022-09-21T12:57:42.973Z,70.8
2022-09-21T12:58:17.082Z,70.6
2022-09-21T12:59:16.549Z,70.7
2022-09-21T13:00:16.982Z,70.7
2022-09-21T13:01:16.648Z,70.7
2022-09-21T13:02:17.662Z,70.2
2022-09-21T13:03:17.312Z,70.7
2022-09-21T13:04:16.774Z,70.7
2022-09-21T13:05:17.278Z,70.5
2022-09-21T13:06:16.744Z,70.1
2022-09-21T13:07:17.204Z,69.8
2022-09-21T13:08:16.674Z,70.0